METAR Data
IDs: Format: Raw Decoded Include TAF

Data at: 1110 UTC 28 Sep 2021

ENRY 281050Z 17008KT 140V200 9999 SCT012 16/11 Q1019 NOSIG